Time;durP1;ratioP1;P1;durP2;ratioP2;P2;SDS_P1;SDS_P2;PMS_P1;PMS_P2;Temp;Humidity;BMP_temperature;BMP_pressure;BME280_temperature;BME280_humidity;BME280_pressure;Samples;Min_cycle;Max_cycle;Signal;HPM_P1;HPM_P2
2022/04/18 00:02:08;;;;;;;6.22;2.75;;;7.20;99.90;;;;;;6276292;22;20069;-88
2022/04/18 00:04:34;;;;;;;5.72;3.30;;;6.20;99.90;;;;;;6276336;22;20015;-86
2022/04/18 00:07:01;;;;;;;6.60;3.15;;;6.60;99.90;;;;;;6249048;22;20512;-86
2022/04/18 00:09:29;;;;;;;6.90;3.60;;;6.70;99.90;;;;;;6275861;22;20077;-87
2022/04/18 00:11:55;;;;;;;8.18;4.32;;;6.70;99.90;;;;;;6276339;22;20020;-88
2022/04/18 00:14:21;;;;;;;9.18;4.30;;;4.50;99.90;;;;;;6249343;22;20098;-87
2022/04/18 00:16:47;;;;;;;7.95;4.07;;;6.20;99.90;;;;;;6275755;22;20097;-87
2022/04/18 00:19:12;;;;;;;8.60;5.07;;;5.80;99.90;;;;;;6249070;22;20023;-86
2022/04/18 00:21:38;;;;;;;9.02;4.28;;;6.30;99.90;;;;;;6275993;22;20018;-87
2022/04/18 00:24:04;;;;;;;7.88;4.57;;;4.90;99.90;;;;;;6276336;22;20085;-87
2022/04/18 00:26:30;;;;;;;8.45;4.53;;;5.30;99.90;;;;;;6276119;22;20011;-86
2022/04/18 00:28:56;;;;;;;10.40;4.53;;;5.20;99.90;;;;;;6249286;22;20069;-87
2022/04/18 00:31:21;;;;;;;10.70;4.85;;;6.50;99.90;;;;;;6275779;22;20073;-87
2022/04/18 00:33:47;;;;;;;8.85;4.65;;;6.00;99.90;;;;;;6276036;22;20026;-88
2022/04/18 00:36:13;;;;;;;6.85;3.80;;;5.10;99.90;;;;;;6249010;22;20090;-87
2022/04/18 00:38:38;;;;;;;7.88;4.70;;;5.10;99.90;;;;;;6248834;22;20377;-87
2022/04/18 00:41:05;;;;;;;9.38;5.18;;;6.30;99.90;;;;;;6248777;22;20030;-87
2022/04/18 00:43:38;;;;;;;8.18;4.40;;;5.80;99.90;;;;;;6248557;22;20024;-88
2022/04/18 00:46:04;;;;;;;10.45;5.13;;;5.10;99.90;;;;;;6248488;22;20020;-87
2022/04/18 00:48:29;;;;;;;7.43;3.95;;;5.10;99.90;;;;;;6275858;22;20031;-86
2022/04/18 00:50:55;;;;;;;6.63;3.90;;;5.10;99.90;;;;;;6276239;22;20022;-87
2022/04/18 00:53:21;;;;;;;7.20;4.03;;;5.40;99.90;;;;;;6248492;22;20103;-87
2022/04/18 00:55:47;;;;;;;8.73;4.00;;;5.10;99.90;;;;;;6276007;22;20493;-86
2022/04/18 00:58:14;;;;;;;7.13;4.13;;;5.10;99.90;;;;;;6276127;22;20024;-87
2022/04/18 01:00:39;;;;;;;8.10;4.85;;;5.30;99.90;;;;;;6248592;22;20023;-88
2022/04/18 01:03:05;;;;;;;8.80;4.45;;;4.80;99.90;;;;;;6248060;22;20027;-88
2022/04/18 01:05:31;;;;;;;6.65;4.43;;;4.90;99.90;;;;;;6276137;22;20024;-87
2022/04/18 01:07:58;;;;;;;9.80;5.28;;;5.00;99.90;;;;;;6223317;22;20023;-88
2022/04/18 01:10:24;;;;;;;10.02;5.25;;;6.30;99.90;;;;;;6248333;22;20485;-87
2022/04/18 01:12:49;;;;;;;10.05;5.28;;;3.90;99.90;;;;;;6275721;22;20016;-87
2022/04/18 01:15:15;;;;;;;9.18;4.80;;;5.90;99.90;;;;;;6275598;22;20023;-87
2022/04/18 01:17:41;;;;;;;11.25;5.78;;;5.50;99.90;;;;;;6276162;22;20024;-87
2022/04/18 01:20:07;;;;;;;10.57;5.85;;;5.20;99.90;;;;;;6275954;22;20019;-86
2022/04/18 01:22:34;;;;;;;9.57;4.63;;;4.70;99.90;;;;;;6275739;22;20047;-86
2022/04/18 01:30:28;;;;;;;8.68;5.10;;;4.60;99.90;;;;;;6248478;22;20023;-87
2022/04/18 01:32:53;;;;;;;7.90;4.97;;;4.80;99.90;;;;;;6275568;22;20027;-87
2022/04/18 01:35:19;;;;;;;9.35;4.85;;;4.60;99.90;;;;;;6248489;22;20320;-87
2022/04/18 01:37:45;;;;;;;11.00;5.43;;;5.50;99.90;;;;;;6275759;22;20315;-86
2022/04/18 01:40:11;;;;;;;8.82;5.32;;;3.60;99.90;;;;;;6275967;22;20027;-87
2022/04/18 01:42:36;;;;;;;9.48;5.25;;;4.60;99.90;;;;;;6248165;22;20024;-86
2022/04/18 01:45:03;;;;;;;10.50;5.10;;;4.60;99.90;;;;;;6275641;22;20020;-87
2022/04/18 01:47:29;;;;;;;12.25;5.47;;;4.50;99.90;;;;;;6275193;22;20020;-86
2022/04/18 01:49:55;;;;;;;9.40;5.88;;;5.10;99.90;;;;;;6248387;22;20034;-85
2022/04/18 01:52:20;;;;;;;7.50;4.25;;;4.30;99.90;;;;;;6248406;22;20054;-86
2022/04/18 01:54:46;;;;;;;8.20;4.38;;;4.30;99.90;;;;;;6275686;22;20078;-86
2022/04/18 01:57:12;;;;;;;8.00;4.65;;;5.30;99.90;;;;;;6275652;22;20015;-86
2022/04/18 01:59:37;;;;;;;9.05;4.68;;;5.30;99.90;;;;;;6275804;22;20511;-86
2022/04/18 02:02:03;;;;;;;8.30;4.95;;;5.10;99.90;;;;;;6248243;22;20023;-87
2022/04/18 02:04:29;;;;;;;8.35;4.55;;;4.40;99.90;;;;;;6248783;22;20023;-87
2022/04/18 02:06:54;;;;;;;7.85;4.45;;;5.30;99.90;;;;;;6275227;22;20058;-87
2022/04/18 02:09:20;;;;;;;10.65;5.50;;;4.90;99.90;;;;;;6248640;22;20019;-86
2022/04/18 02:11:46;;;;;;;12.00;6.10;;;5.80;99.90;;;;;;6275995;22;20020;-86
2022/04/18 02:14:12;;;;;;;10.70;5.63;;;5.80;99.90;;;;;;6249059;22;20019;-88
2022/04/18 02:16:37;;;;;;;8.15;5.13;;;4.20;99.90;;;;;;6250294;22;20019;-86
2022/04/18 02:19:03;;;;;;;10.52;4.93;;;5.50;99.90;;;;;;6250100;22;20324;-87
2022/04/18 02:21:29;;;;;;;10.63;4.85;;;3.70;99.90;;;;;;6249859;22;20327;-87
2022/04/18 02:23:57;;;;;;;8.65;5.05;;;5.20;99.90;;;;;;6276774;22;20059;-87
2022/04/18 02:26:23;;;;;;;12.88;5.57;;;4.20;99.90;;;;;;6249816;22;20019;-87
2022/04/18 02:28:49;;;;;;;9.35;5.05;;;4.90;99.90;;;;;;6277218;22;20023;-88
2022/04/18 02:31:15;;;;;;;9.70;5.10;;;5.00;99.90;;;;;;6250043;22;20030;-86
2022/04/18 02:33:41;;;;;;;11.77;5.30;;;4.80;99.90;;;;;;6249820;22;20031;-86
2022/04/18 02:36:06;;;;;;;11.40;5.43;;;5.10;99.90;;;;;;6249931;22;20354;-87
2022/04/18 02:38:32;;;;;;;12.90;6.13;;;5.10;99.90;;;;;;6249686;22;20031;-87
2022/04/18 02:40:58;;;;;;;12.55;6.05;;;4.70;99.90;;;;;;6277258;22;20027;-87
2022/04/18 02:43:23;;;;;;;10.02;5.20;;;5.20;99.90;;;;;;6277285;22;20081;-86
2022/04/18 02:45:49;;;;;;;11.30;6.15;;;5.40;99.90;;;;;;6277045;22;20389;-87
2022/04/18 02:48:15;;;;;;;12.15;5.38;;;4.10;99.90;;;;;;6249649;22;20042;-87
2022/04/18 02:50:40;;;;;;;10.40;5.05;;;3.90;99.90;;;;;;6250343;22;20058;-87
2022/04/18 02:53:06;;;;;;;10.52;5.53;;;4.60;99.90;;;;;;6277353;22;20039;-88
2022/04/18 02:55:32;;;;;;;12.85;5.78;;;4.00;99.90;;;;;;6276824;22;20085;-85
2022/04/18 02:57:58;;;;;;;10.77;5.20;;;4.00;99.90;;;;;;6249831;22;20054;-86
2022/04/18 03:00:23;;;;;;;11.52;6.10;;;5.20;99.90;;;;;;6277054;22;20038;-86
2022/04/18 03:02:49;;;;;;;9.27;5.53;;;3.90;99.90;;;;;;6276677;22;20011;-86
2022/04/18 03:05:15;;;;;;;9.45;5.20;;;4.80;99.90;;;;;;6249899;22;20400;-86
2022/04/18 03:07:41;;;;;;;11.15;5.25;;;3.80;99.90;;;;;;6276613;22;20015;-87
2022/04/18 03:10:08;;;;;;;11.93;5.20;;;3.10;99.90;;;;;;6249611;22;20073;-86
2022/04/18 03:12:34;;;;;;;8.77;5.20;;;3.90;99.90;;;;;;6249995;22;20019;-87
2022/04/18 03:15:00;;;;;;;9.40;5.40;;;5.20;99.90;;;;;;6249524;22;20023;-87
2022/04/18 03:17:25;;;;;;;10.75;5.60;;;4.40;99.90;;;;;;6224048;22;20026;-87
2022/04/18 03:19:52;;;;;;;11.05;4.78;;;3.70;99.90;;;;;;6276785;22;20091;-88
2022/04/18 03:22:19;;;;;;;8.98;4.80;;;3.30;99.90;;;;;;6276471;22;20025;-87
2022/04/18 03:24:45;;;;;;;11.13;5.95;;;4.80;99.90;;;;;;6276570;22;20016;-88
2022/04/18 03:27:11;;;;;;;11.48;6.20;;;4.90;99.90;;;;;;6249383;22;20030;-88
2022/04/18 03:29:37;;;;;;;10.65;5.15;;;4.80;99.90;;;;;;6276741;22;20079;-88
2022/04/18 03:32:04;;;;;;;9.73;5.53;;;5.00;99.90;;;;;;6249006;22;20030;-87
2022/04/18 03:34:30;;;;;;;11.85;6.40;;;3.70;99.90;;;;;;6276832;22;20030;-86
2022/04/18 03:39:52;;;;;;;10.65;5.70;;;4.40;99.90;;;;;;6249054;22;20026;-88
2022/04/18 03:42:31;;;;;;;10.40;5.82;;;3.80;99.90;;;;;;6277118;22;20107;-88
2022/04/18 03:45:04;;;;;;;12.65;5.80;;;3.60;99.90;;;;;;6277249;22;20102;-87
2022/04/18 03:47:30;;;;;;;10.52;5.25;;;3.60;99.90;;;;;;6275129;22;20051;-87
2022/04/18 03:49:56;;;;;;;11.32;5.53;;;4.40;99.90;;;;;;6276003;22;20051;-87
2022/04/18 03:52:23;;;;;;;12.07;5.78;;;3.40;99.90;;;;;;6276009;22;20457;-86
2022/04/18 03:54:49;;;;;;;8.40;4.38;;;4.30;99.90;;;;;;6276605;22;20029;-87
2022/04/18 03:57:14;;;;;;;9.77;5.22;;;4.20;99.90;;;;;;6276374;22;20099;-88
2022/04/18 03:59:41;;;;;;;11.15;5.25;;;3.50;99.90;;;;;;6276304;22;20020;-87
2022/04/18 04:02:06;;;;;;;11.27;5.43;;;4.30;99.90;;;;;;6249189;22;20036;-88
2022/04/18 04:04:32;;;;;;;8.57;4.72;;;4.30;99.90;;;;;;6248853;22;20098;-86
2022/04/18 04:06:58;;;;;;;9.07;4.43;;;3.50;99.90;;;;;;6249149;22;20084;-86
2022/04/18 04:09:24;;;;;;;14.38;5.32;;;3.50;99.90;;;;;;6276004;22;20020;-87
2022/04/18 04:11:51;;;;;;;11.38;4.97;;;2.00;99.90;;;;;;6275991;22;20019;-87
2022/04/18 04:14:18;;;;;;;7.28;4.07;;;3.30;99.90;;;;;;6276256;22;20437;-85
2022/04/18 04:16:44;;;;;;;11.32;5.35;;;3.80;99.90;;;;;;6276657;22;20023;-87
2022/04/18 04:19:10;;;;;;;10.20;5.22;;;2.70;99.90;;;;;;6248805;22;20019;-87
2022/04/18 04:21:35;;;;;;;9.60;4.82;;;3.50;99.90;;;;;;6275504;22;20058;-87
2022/04/18 04:24:01;;;;;;;9.25;4.45;;;4.70;99.90;;;;;;6248835;22;20023;-87
2022/04/18 04:26:27;;;;;;;12.18;6.07;;;4.20;99.90;;;;;;6249008;22;20066;-87
2022/04/18 04:28:53;;;;;;;7.60;4.25;;;3.50;99.90;;;;;;6276271;22;20042;-87
2022/04/18 04:31:19;;;;;;;9.18;4.78;;;3.40;99.90;;;;;;6248122;22;20020;-86
2022/04/18 04:33:45;;;;;;;9.85;5.00;;;3.70;99.90;;;;;;6276584;22;20026;-87
2022/04/18 04:36:12;;;;;;;9.63;4.22;;;3.40;99.90;;;;;;6276282;22;20055;-87
2022/04/18 04:38:38;;;;;;;10.48;5.03;;;4.40;99.90;;;;;;6276213;22;20030;-86
2022/04/18 04:41:04;;;;;;;10.35;4.88;;;4.20;99.90;;;;;;6248713;22;20030;-87
2022/04/18 04:43:29;;;;;;;8.13;4.45;;;4.00;99.90;;;;;;6248597;22;20024;-88
2022/04/18 04:45:56;;;;;;;8.23;4.63;;;3.50;99.90;;;;;;6276235;22;20031;-87
2022/04/18 04:48:23;;;;;;;9.57;4.97;;;4.20;99.90;;;;;;6248782;22;20020;-87
2022/04/18 04:50:49;;;;;;;7.53;3.95;;;4.20;99.90;;;;;;6276250;22;20386;-87
2022/04/18 04:53:14;;;;;;;9.77;4.15;;;4.10;99.90;;;;;;6275989;22;20043;-87
2022/04/18 04:55:41;;;;;;;7.40;4.00;;;4.80;99.90;;;;;;6248861;22;20396;-87
2022/04/18 04:58:12;;;;;;;6.65;3.92;;;4.70;99.90;;;;;;6275583;22;20477;-87
2022/04/18 05:00:38;;;;;;;6.28;3.63;;;3.50;99.90;;;;;;6276291;22;20319;-87
2022/04/18 05:03:05;;;;;;;8.30;4.15;;;3.30;99.90;;;;;;6248156;22;20034;-87
2022/04/18 05:05:32;;;;;;;8.20;3.95;;;4.40;99.90;;;;;;6276112;22;20047;-87
2022/04/18 05:07:58;;;;;;;8.25;4.18;;;3.40;99.90;;;;;;6248377;22;20023;-87
2022/04/18 05:10:24;;;;;;;11.68;4.85;;;4.30;99.90;;;;;;6276100;22;20108;-86
2022/04/18 05:12:49;;;;;;;8.10;4.82;;;3.60;99.90;;;;;;6275939;22;20446;-87
2022/04/18 05:15:15;;;;;;;7.18;4.13;;;3.70;99.90;;;;;;6276048;22;20057;-87
2022/04/18 05:17:41;;;;;;;7.47;4.43;;;2.50;99.90;;;;;;6275821;22;20027;-87
2022/04/18 05:20:07;;;;;;;8.88;4.15;;;3.70;99.90;;;;;;6248872;22;20016;-86
2022/04/18 05:22:33;;;;;;;7.28;3.58;;;3.60;99.90;;;;;;6275574;22;20094;-86
2022/04/18 05:24:59;;;;;;;8.80;3.78;;;4.20;99.90;;;;;;6275506;22;20062;-86
2022/04/18 05:27:25;;;;;;;8.05;4.35;;;5.00;99.90;;;;;;6275723;22;20022;-85
2022/04/18 05:29:51;;;;;;;6.88;3.55;;;4.00;99.90;;;;;;6222910;22;20023;-85
2022/04/18 05:32:16;;;;;;;6.85;3.47;;;3.70;99.90;;;;;;6275640;22;20091;-86
2022/04/18 05:34:43;;;;;;;7.00;3.58;;;5.40;99.90;;;;;;6248688;22;20106;-86
2022/04/18 05:37:08;;;;;;;5.60;3.20;;;3.30;99.90;;;;;;6275333;22;20511;-86
2022/04/18 05:39:34;;;;;;;5.03;2.83;;;3.80;99.90;;;;;;6275457;22;20059;-87
2022/04/18 05:42:00;;;;;;;6.82;2.95;;;5.50;99.90;;;;;;6248467;22;20011;-85
2022/04/18 05:44:26;;;;;;;5.65;3.13;;;4.10;99.90;;;;;;6248796;22;20023;-87
2022/04/18 05:46:52;;;;;;;10.38;4.18;;;4.20;99.90;;;;;;6275820;22;20034;-87
2022/04/18 05:49:18;;;;;;;9.63;4.43;;;4.40;99.90;;;;;;6250066;22;20051;-87
2022/04/18 05:51:43;;;;;;;5.80;4.05;;;3.90;99.90;;;;;;6250543;22;20048;-87
2022/04/18 05:54:09;;;;;;;7.28;3.78;;;3.60;99.90;;;;;;6250313;22;20027;-87
2022/04/18 05:56:35;;;;;;;7.30;4.18;;;4.70;99.90;;;;;;6250583;22;20027;-88
2022/04/18 05:59:01;;;;;;;6.40;3.17;;;4.80;99.90;;;;;;6250134;22;20027;-89
2022/04/18 06:01:28;;;;;;;7.75;3.33;;;4.50;99.90;;;;;;6277154;22;20019;-85
2022/04/18 06:03:55;;;;;;;5.13;2.80;;;5.90;99.90;;;;;;6250443;22;20022;-86
2022/04/18 06:06:21;;;;;;;6.57;3.13;;;6.20;99.90;;;;;;6250559;22;20509;-85
2022/04/18 06:08:46;;;;;;;6.43;3.45;;;5.40;99.90;;;;;;6277299;22;20066;-85
2022/04/18 06:11:12;;;;;;;6.47;3.72;;;6.70;99.90;;;;;;6249977;22;20458;-88
2022/04/18 06:13:38;;;;;;;5.88;3.70;;;6.60;99.90;;;;;;6277856;22;20019;-88
2022/04/18 06:16:04;;;;;;;8.77;3.80;;;6.90;99.90;;;;;;6250204;22;20454;-91
2022/04/18 06:18:30;;;;;;;7.38;4.35;;;6.00;99.90;;;;;;6250065;22;20089;-85
2022/04/18 06:20:56;;;;;;;8.77;4.32;;;7.60;99.90;;;;;;6249965;22;20015;-86
2022/04/18 06:23:21;;;;;;;8.00;3.92;;;6.40;99.90;;;;;;6276587;22;20020;-87
2022/04/18 06:25:48;;;;;;;8.38;4.63;;;7.80;99.90;;;;;;6225028;22;20020;-86
2022/04/18 06:28:15;;;;;;;6.93;3.35;;;7.10;99.90;;;;;;6249884;22;20020;-86
2022/04/18 06:30:41;;;;;;;6.78;3.95;;;7.90;99.90;;;;;;6277524;22;20020;-84
2022/04/18 06:33:11;;;;;;;5.38;3.55;;;7.40;99.90;;;;;;6276907;22;20019;-85
2022/04/18 06:35:37;;;;;;;7.88;3.90;;;7.20;99.90;;;;;;6250055;22;20015;-83
2022/04/18 06:38:03;;;;;;;9.23;3.80;;;7.30;99.90;;;;;;6277112;22;20086;-84
2022/04/18 06:40:28;;;;;;;7.82;3.55;;;7.50;99.90;;;;;;6277483;22;20020;-84
2022/04/18 06:42:54;;;;;;;6.25;3.85;;;7.70;99.90;;;;;;6277591;22;20020;-85
2022/04/18 06:45:20;;;;;;;5.75;3.28;;;9.00;99.90;;;;;;6250447;22;20023;-87
2022/04/18 06:47:45;;;;;;;6.75;3.17;;;8.00;99.90;;;;;;6277335;22;20031;-84
2022/04/18 06:50:12;;;;;;;6.30;3.85;;;8.70;99.90;;;;;;6277000;22;20027;-85
2022/04/18 06:52:39;;;;;;;7.88;3.45;;;9.60;99.90;;;;;;6249367;22;20050;-84
2022/04/18 06:55:06;;;;;;;7.50;4.28;;;8.60;99.90;;;;;;6248964;22;20099;-83
2022/04/18 06:57:32;;;;;;;5.93;3.25;;;8.70;99.90;;;;;;6276923;22;20507;-84
2022/04/18 06:59:58;;;;;;;5.97;3.25;;;9.40;99.90;;;;;;6249329;22;20094;-85
2022/04/18 07:02:23;;;;;;;8.48;3.25;;;10.10;99.90;;;;;;6276828;22;20054;-86
2022/04/18 07:04:50;;;;;;;8.27;3.35;;;9.30;99.90;;;;;;6277149;22;20019;-86
2022/04/18 07:07:15;;;;;;;6.60;3.40;;;9.40;99.90;;;;;;6249954;22;20404;-86
2022/04/18 07:09:41;;;;;;;6.72;3.65;;;9.80;99.90;;;;;;6276556;22;20024;-86
2022/04/18 07:12:07;;;;;;;5.85;3.70;;;9.70;99.90;;;;;;6276799;22;20028;-84
2022/04/18 07:14:36;;;;;;;7.85;4.13;;;9.90;99.90;;;;;;6249450;22;20027;-82
2022/04/18 07:17:02;;;;;;;7.18;3.53;;;10.00;99.90;;;;;;6276972;22;20291;-84
2022/04/18 07:19:28;;;;;;;5.45;3.15;;;10.20;99.90;;;;;;6249745;22;20031;-83
2022/04/18 07:21:55;;;;;;;6.18;3.72;;;10.40;99.90;;;;;;6249425;22;20078;-85
2022/04/18 07:24:22;;;;;;;7.43;3.97;;;10.50;99.90;;;;;;6276389;22;20024;-83
2022/04/18 07:26:48;;;;;;;3.92;2.83;;;10.80;99.90;;;;;;6276721;22;20122;-84
2022/04/18 07:29:14;;;;;;;8.88;2.88;;;10.90;99.90;;;;;;6249972;22;20020;-84
2022/04/18 07:31:40;;;;;;;6.10;3.30;;;11.10;99.90;;;;;;6276571;22;20019;-84
2022/04/18 07:34:06;;;;;;;5.00;2.75;;;11.20;99.90;;;;;;6276950;22;20038;-86
2022/04/18 07:36:32;;;;;;;3.53;2.08;;;11.90;99.90;;;;;;6276731;22;20012;-85
2022/04/18 07:38:57;;;;;;;6.18;3.33;;;11.60;99.90;;;;;;6249137;22;20453;-86
2022/04/18 07:41:28;;;;;;;6.75;3.25;;;11.80;99.90;;;;;;6276962;22;20442;-85
2022/04/18 07:43:56;;;;;;;5.53;2.97;;;11.90;99.90;;;;;;6248679;22;20043;-86
2022/04/18 07:46:23;;;;;;;6.43;3.30;;;12.30;99.90;;;;;;6249030;22;20024;-84
2022/04/18 07:48:50;;;;;;;5.55;2.70;;;12.30;99.90;;;;;;6276990;22;20020;-84
2022/04/18 07:51:34;;;;;;;4.95;2.50;;;12.40;99.90;;;;;;6276501;22;20023;-83
2022/04/18 07:54:01;;;;;;;4.70;2.30;;;12.60;99.90;;;;;;6248646;22;20016;-84
2022/04/18 07:56:30;;;;;;;5.35;2.55;;;12.90;99.90;;;;;;6249260;22;20023;-86
2022/04/18 07:58:56;;;;;;;6.00;2.78;;;13.00;99.90;;;;;;6271192;22;20016;-82
2022/04/18 08:01:21;;;;;;;7.95;3.30;;;13.10;99.90;;;;;;6276117;22;20020;-82
2022/04/18 08:03:48;;;;;;;7.78;3.08;;;13.30;99.90;;;;;;6276160;22;20058;-83
2022/04/18 08:06:16;;;;;;;4.65;2.67;;;14.00;99.90;;;;;;6249014;22;20086;-86
2022/04/18 08:08:42;;;;;;;5.78;2.88;;;13.50;98.10;;;;;;6276170;22;20501;-86
2022/04/18 08:11:11;;;;;;;3.88;2.20;;;13.70;99.20;;;;;;6276259;22;20042;-86
2022/04/18 08:13:48;;;;;;;8.20;2.88;;;13.80;99.90;;;;;;6276085;22;20024;-85
2022/04/18 08:16:14;;;;;;;6.15;3.30;;;14.40;99.60;;;;;;6276445;22;20059;-85
2022/04/18 08:18:43;;;;;;;6.78;3.30;;;14.10;98.40;;;;;;6249672;22;20019;-85
2022/04/18 08:21:09;;;;;;;4.72;2.60;;;14.20;97.80;;;;;;6276105;22;20024;-84
2022/04/18 08:23:35;;;;;;;6.43;2.78;;;14.30;99.50;;;;;;6275762;22;20095;-86
2022/04/18 08:26:04;;;;;;;4.75;2.40;;;14.50;99.00;;;;;;6276282;22;20023;-86
2022/04/18 08:28:30;;;;;;;4.53;2.65;;;14.70;98.70;;;;;;6248512;22;20020;-85
2022/04/18 08:30:56;;;;;;;5.68;3.00;;;14.80;97.80;;;;;;6275687;22;20058;-82
2022/04/18 08:33:22;;;;;;;7.97;2.83;;;15.00;98.10;;;;;;6249218;22;20015;-83
2022/04/18 08:35:48;;;;;;;4.53;2.70;;;15.10;97.30;;;;;;6276138;22;20015;-82
2022/04/18 08:38:14;;;;;;;4.20;2.78;;;15.20;96.20;;;;;;6276320;22;20508;-83
2022/04/18 08:40:44;;;;;;;3.95;2.28;;;15.30;95.50;;;;;;6248397;22;20744;-83
2022/04/18 08:43:10;;;;;;;5.80;2.50;;;15.50;95.80;;;;;;6276137;22;20024;-84
2022/04/18 08:45:39;;;;;;;5.97;2.50;;;15.60;95.20;;;;;;6276148;22;20016;-85
2022/04/18 08:53:38;;;;;;;4.57;2.25;;;15.90;93.30;;;;;;6276099;22;20023;-85
2022/04/18 08:56:05;;;;;;;5.00;2.85;;;16.10;93.10;;;;;;6248638;22;20023;-85
2022/04/18 08:58:31;;;;;;;3.22;1.88;;;16.10;92.20;;;;;;6276041;22;20027;-87
2022/04/18 09:00:59;;;;;;;4.45;1.98;;;16.30;92.30;;;;;;6248350;22;20148;-86
2022/04/18 09:03:25;;;;;;;3.55;2.33;;;16.40;92.10;;;;;;6275722;22;20346;-84
2022/04/18 09:06:10;;;;;;;5.07;2.90;;;16.50;89.70;;;;;;6275706;22;20059;-83
2022/04/18 09:08:52;;;;;;;9.65;2.63;;;16.70;89.70;;;;;;6276176;22;20016;-85
2022/04/18 09:11:40;;;;;;;4.28;2.38;;;16.80;87.50;;;;;;6275638;22;20011;-84
2022/04/18 09:14:08;;;;;;;5.70;2.63;;;16.90;90.90;;;;;;6275920;22;20057;-94
2022/04/18 09:16:38;;;;;;;5.78;2.53;;;17.00;84.90;;;;;;6276013;22;20016;-92
2022/04/18 09:21:33;;;;;;;2.28;1.67;;;17.20;83.50;;;;;;6275046;22;20046;-90
2022/04/18 09:24:26;;;;;;;4.25;2.00;;;17.30;86.50;;;;;;6250387;22;20020;-90
2022/04/18 09:26:52;;;;;;;4.35;2.33;;;17.60;88.30;;;;;;6226658;22;20102;-91
2022/04/18 09:29:18;;;;;;;4.80;2.70;;;17.70;85.30;;;;;;6278492;22;20051;-89
2022/04/18 09:31:46;;;;;;;4.30;2.15;;;17.80;86.10;;;;;;6275584;22;20016;-88
2022/04/18 09:34:20;;;;;;;3.72;2.20;;;18.00;85.60;;;;;;6275332;22;20458;-89
2022/04/18 09:36:45;;;;;;;5.00;1.98;;;18.10;83.50;;;;;;6277793;22;20023;-89
2022/04/18 09:39:11;;;;;;;5.35;2.10;;;18.20;80.10;;;;;;6250069;22;20030;-89
2022/04/18 09:41:47;;;;;;;4.18;2.28;;;18.30;81.90;;;;;;6250249;22;20446;-87
2022/04/18 09:44:12;;;;;;;4.45;2.53;;;18.40;80.00;;;;;;6250149;22;20047;-87
2022/04/18 09:46:38;;;;;;;3.85;2.25;;;18.50;79.10;;;;;;6252941;22;20026;-88
2022/04/18 09:49:04;;;;;;;4.13;2.13;;;18.70;79.20;;;;;;6249915;22;20058;-85
2022/04/18 09:51:30;;;;;;;4.30;2.47;;;18.80;80.70;;;;;;6277486;22;20070;-85
2022/04/18 09:53:57;;;;;;;4.43;2.38;;;18.90;81.80;;;;;;6277777;22;20027;-87
2022/04/18 09:56:25;;;;;;;3.65;2.15;;;19.00;78.70;;;;;;6250614;22;20066;-86
2022/04/18 09:58:53;;;;;;;4.20;2.25;;;19.10;77.60;;;;;;6277924;22;20020;-87
2022/04/18 10:01:19;;;;;;;3.65;2.25;;;19.10;75.00;;;;;;6277442;22;20489;-88
2022/04/18 10:03:48;;;;;;;4.60;2.33;;;19.20;77.90;;;;;;6277958;22;20076;-86
2022/04/18 10:06:14;;;;;;;2.55;1.98;;;19.40;79.20;;;;;;6250593;22;20512;-86
2022/04/18 10:08:39;;;;;;;3.20;1.73;;;19.50;77.30;;;;;;6277804;22;20023;-86
2022/04/18 10:11:08;;;;;;;4.32;2.28;;;19.60;72.20;;;;;;6278061;22;20030;-86
2022/04/18 10:13:35;;;;;;;5.22;2.28;;;19.80;70.40;;;;;;6277664;22;20019;-86
2022/04/18 10:16:02;;;;;;;4.40;2.38;;;19.90;72.00;;;;;;6277618;22;20367;-86
2022/04/18 10:18:28;;;;;;;4.65;2.33;;;20.00;72.70;;;;;;6224839;22;20028;-87
2022/04/18 10:21:25;;;;;;;4.30;2.33;;;20.10;72.50;;;;;;6277190;22;20081;-85
2022/04/18 10:23:54;;;;;;;3.35;1.92;;;20.20;69.00;;;;;;6124256;23;20081;-87
2022/04/18 10:27:18;;;;;;;5.30;2.30;;;20.30;67.40;;;;;;6124861;23;20397;-86
2022/04/18 10:29:58;;;;;;;3.30;1.80;;;20.40;70.80;;;;;;5952902;24;20487;-92
2022/04/18 10:32:27;;;;;;;2.30;1.40;;;20.70;69.40;;;;;;5953489;24;20065;-90
2022/04/18 10:35:33;;;;;;;;;;;;;;;;;;;;;
2022/04/18 10:38:07;;;;;;;2.38;1.33;;;20.70;64.80;;;;;;5952732;24;20028;-89
2022/04/18 10:40:40;;;;;;;2.63;1.40;;;20.80;63.90;;;;;;5930201;24;20520;-87
2022/04/18 10:43:11;;;;;;;2.75;1.10;;;21.00;62.80;;;;;;5925868;24;20634;-88
2022/04/18 10:45:38;;;;;;;3.40;1.20;;;21.00;63.30;;;;;;5953337;24;20061;-86
2022/04/18 10:48:05;;;;;;;3.22;1.50;;;21.30;63.40;;;;;;5953110;24;20027;-86
2022/04/18 10:50:34;;;;;;;3.80;1.30;;;21.30;63.80;;;;;;5930002;24;20445;-87
2022/04/18 10:53:15;;;;;;;3.58;1.67;;;21.50;61.70;;;;;;5953155;24;20025;-87
2022/04/18 10:56:00;;;;;;;3.15;1.42;;;21.60;61.40;;;;;;5930164;24;20047;-86
2022/04/18 10:58:27;;;;;;;;;;;21.80;62.10;;;;;;5953418;24;20020;-85
2022/04/18 11:00:55;;;;;;;2.20;1.10;;;21.80;60.60;;;;;;6017378;23;19921;-86
2022/04/18 11:03:39;;;;;;;2.55;1.33;;;21.90;60.40;;;;;;6018537;23;20033;-83
2022/04/18 11:06:15;;;;;;;4.97;1.40;;;22.00;63.50;;;;;;6166531;22;20382;-86
2022/04/18 11:08:41;;;;;;;3.15;1.48;;;22.10;59.30;;;;;;6276723;22;20464;-87
2022/04/18 11:11:16;;;;;;;2.80;1.60;;;22.20;59.20;;;;;;6277189;22;20011;-88
2022/04/18 11:13:49;;;;;;;;;;;22.00;54.80;;;;;;6225026;22;20024;-90
2022/04/18 11:16:23;;;;;;;2.50;1.50;;;21.80;53.10;;;;;;6276980;22;20002;-86
2022/04/18 11:19:08;;;;;;;2.50;1.27;;;21.90;55.70;;;;;;6277039;22;20405;-87
2022/04/18 11:21:59;;;;;;;5.22;2.00;;;22.00;54.00;;;;;;6276569;22;20397;-87
2022/04/18 11:24:46;;;;;;;3.20;1.77;;;22.00;55.20;;;;;;6224457;22;20032;-87
2022/04/18 11:27:33;;;;;;;2.85;1.40;;;22.10;55.10;;;;;;6276684;22;20024;-85
2022/04/18 11:30:07;;;;;;;4.22;1.00;;;22.20;57.20;;;;;;6276930;22;20358;-86
2022/04/18 11:32:38;;;;;;;2.90;1.30;;;22.40;53.40;;;;;;6276770;22;20346;-86
2022/04/18 11:35:07;;;;;;;3.10;1.50;;;22.50;50.30;;;;;;6277040;22;20027;-86
2022/04/18 11:37:43;;;;;;;2.72;1.50;;;22.40;48.50;;;;;;6276546;22;20019;-86
2022/04/18 11:40:16;;;;;;;3.38;1.70;;;22.20;48.10;;;;;;6276472;22;20015;-85
2022/04/18 11:42:44;;;;;;;2.50;1.38;;;22.40;50.70;;;;;;6276455;22;20024;-87
2022/04/18 11:45:22;;;;;;;1.90;1.30;;;22.50;52.10;;;;;;6249414;22;20461;-86
2022/04/18 11:47:48;;;;;;;2.50;1.42;;;22.50;50.00;;;;;;6248958;22;20028;-87
2022/04/18 11:50:21;;;;;;;2.90;1.90;;;22.50;52.20;;;;;;6276816;22;20023;-84
2022/04/18 11:52:49;;;;;;;3.03;1.77;;;22.70;52.50;;;;;;6276869;22;20047;-87
2022/04/18 11:55:17;;;;;;;3.72;1.80;;;22.80;50.80;;;;;;6249944;22;20034;-87
2022/04/18 11:57:52;;;;;;;4.00;1.60;;;22.80;47.70;;;;;;6276903;22;20020;-86
2022/04/18 12:08:45;;;;;;;3.70;1.40;;;23.00;48.40;;;;;;6276117;22;20469;-86
2022/04/18 12:11:11;;;;;;;2.67;1.30;;;23.20;50.30;;;;;;6276159;22;20022;-87
2022/04/18 12:13:44;;;;;;;1.98;1.23;;;23.30;50.80;;;;;;6276274;22;20019;-86
2022/04/18 12:16:11;;;;;;;4.07;1.60;;;23.40;49.00;;;;;;6248942;22;20023;-85
2022/04/18 12:18:38;;;;;;;3.33;1.75;;;23.30;45.00;;;;;;6249226;22;20031;-86
2022/04/18 12:21:03;;;;;;;2.50;1.45;;;23.10;47.10;;;;;;6275776;22;20020;-86
2022/04/18 12:23:29;;;;;;;2.80;1.17;;;23.30;50.10;;;;;;6249169;22;20448;-87
2022/04/18 12:25:58;;;;;;;2.47;1.30;;;23.40;49.70;;;;;;6276479;22;20039;-86
2022/04/18 12:28:28;;;;;;;1.90;1.10;;;23.50;46.80;;;;;;6248906;22;20446;-85
2022/04/18 12:30:55;;;;;;;2.50;1.30;;;23.60;49.50;;;;;;6276162;22;20011;-86
2022/04/18 12:33:26;;;;;;;2.40;1.20;;;23.50;46.80;;;;;;6276570;22;20016;-85
2022/04/18 12:35:53;;;;;;;1.50;1.20;;;23.50;46.60;;;;;;6249244;22;20019;-86
2022/04/18 12:38:28;;;;;;;1.65;1.02;;;23.70;49.20;;;;;;6276053;22;20449;-86
2022/04/18 12:40:56;;;;;;;1.85;1.20;;;23.80;48.70;;;;;;6249258;22;20043;-87
2022/04/18 12:43:27;;;;;;;2.95;1.50;;;23.90;47.00;;;;;;6248909;22;20051;-85
2022/04/18 12:45:59;;;;;;;2.00;1.20;;;23.70;47.80;;;;;;6276317;22;20015;-86
2022/04/18 12:48:29;;;;;;;2.45;1.70;;;23.70;45.70;;;;;;6276261;22;20016;-87
2022/04/18 12:50:57;;;;;;;3.22;1.30;;;23.70;46.00;;;;;;6248766;22;20103;-85
2022/04/18 12:54:03;;;;;;;2.67;1.17;;;23.60;46.30;;;;;;6248510;22;20059;-86
2022/04/18 12:56:29;;;;;;;2.08;1.20;;;23.80;49.30;;;;;;6275086;22;20023;-86
2022/04/18 12:58:55;;;;;;;1.73;1.25;;;24.10;47.30;;;;;;6275970;22;20078;-86
2022/04/18 13:01:35;;;;;;;3.53;1.50;;;24.00;45.40;;;;;;6249237;22;20020;-87
2022/04/18 13:04:05;;;;;;;3.20;1.40;;;24.00;47.00;;;;;;6275933;22;20023;-84
2022/04/18 13:06:33;;;;;;;2.00;1.10;;;24.10;48.70;;;;;;6248371;22;20019;-87
2022/04/18 13:09:09;;;;;;;2.00;1.27;;;24.20;47.50;;;;;;6276144;22;20315;-85
2022/04/18 13:11:39;;;;;;;2.08;1.20;;;24.20;45.50;;;;;;6276022;22;20454;-86
2022/04/18 13:14:06;;;;;;;2.33;1.27;;;24.30;43.90;;;;;;6276208;22;20384;-86
2022/04/18 13:16:31;;;;;;;2.03;1.10;;;24.30;46.40;;;;;;6275850;22;20431;-87
2022/04/18 13:19:03;;;;;;;2.35;1.20;;;24.30;47.00;;;;;;6248578;22;20024;-86
2022/04/18 13:21:29;;;;;;;2.17;1.40;;;24.40;48.40;;;;;;6275466;22;20074;-86
2022/04/18 13:23:56;;;;;;;2.08;1.10;;;24.40;45.20;;;;;;6276133;22;20102;-87